Time;durP1;ratioP1;P1;durP2;ratioP2;P2;SDS_P1;SDS_P2;PMS_P1;PMS_P2;Temp;Humidity;BMP_temperature;BMP_pressure;BME280_temperature;BME280_humidity;BME280_pressure;Samples;Min_cycle;Max_cycle;Signal;HPM_P1;HPM_P2
2023/05/19 00:00:36;;;;;;;12.40;3.00;;;8.10;77.30;;;;;;5050298;28;20025;-69
2023/05/19 00:03:03;;;;;;;6.20;2.67;;;8.10;78.20;;;;;;5044854;28;20029;-69
2023/05/19 00:05:29;;;;;;;9.27;3.00;;;8.00;77.80;;;;;;5040133;28;20033;-69
2023/05/19 00:07:58;;;;;;;8.00;2.53;;;8.00;77.70;;;;;;5051173;28;20025;-69
2023/05/19 00:10:29;;;;;;;8.23;2.55;;;8.00;79.00;;;;;;5050767;28;20155;-69
2023/05/19 00:12:55;;;;;;;8.73;2.90;;;8.00;78.50;;;;;;5048886;28;20033;-70
2023/05/19 00:15:21;;;;;;;8.70;3.00;;;8.00;77.90;;;;;;5041188;28;20025;-69
2023/05/19 00:17:47;;;;;;;9.50;2.63;;;8.00;79.30;;;;;;5039382;28;20033;-69
2023/05/19 00:20:13;;;;;;;8.35;2.92;;;7.90;78.40;;;;;;5044220;28;20112;-69
2023/05/19 00:22:39;;;;;;;10.13;3.22;;;7.90;79.40;;;;;;5047751;28;20436;-69
2023/05/19 00:25:05;;;;;;;8.52;3.17;;;7.90;79.50;;;;;;5035794;28;20115;-69
2023/05/19 00:27:30;;;;;;;4.85;2.50;;;7.90;78.70;;;;;;5041272;28;20435;-69
2023/05/19 00:29:56;;;;;;;10.30;3.00;;;7.90;78.90;;;;;;5046398;28;20033;-69
2023/05/19 00:32:21;;;;;;;11.23;3.03;;;7.90;78.60;;;;;;5046573;28;20369;-70
2023/05/19 00:34:47;;;;;;;9.88;2.85;;;7.80;78.70;;;;;;5046737;28;20033;-69
2023/05/19 00:37:13;;;;;;;9.38;2.60;;;7.80;78.60;;;;;;5047254;28;20521;-69
2023/05/19 00:39:38;;;;;;;7.53;2.55;;;7.80;78.40;;;;;;5042632;28;20028;-70
2023/05/19 00:42:04;;;;;;;17.95;2.90;;;7.80;78.20;;;;;;5044890;28;20075;-69
2023/05/19 00:44:30;;;;;;;7.80;2.92;;;7.80;78.00;;;;;;5044779;28;20032;-69
2023/05/19 00:46:56;;;;;;;6.20;2.25;;;7.70;78.10;;;;;;5048312;28;20407;-69
2023/05/19 00:49:22;;;;;;;11.57;2.90;;;7.70;78.20;;;;;;5038588;28;20034;-69
2023/05/19 00:51:48;;;;;;;10.35;2.88;;;7.60;78.70;;;;;;5046615;28;20476;-69
2023/05/19 00:54:14;;;;;;;6.68;2.33;;;7.60;78.10;;;;;;5042817;28;20055;-69
2023/05/19 00:56:40;;;;;;;9.13;2.38;;;7.60;78.30;;;;;;5040157;28;20075;-69
2023/05/19 00:59:07;;;;;;;9.40;2.67;;;7.60;78.60;;;;;;5046197;28;20032;-69
2023/05/19 01:01:32;;;;;;;8.65;2.70;;;7.50;78.50;;;;;;5046384;28;20274;-69
2023/05/19 01:03:58;;;;;;;10.88;2.60;;;7.50;78.80;;;;;;5043669;28;20040;-70
2023/05/19 01:06:24;;;;;;;7.53;2.47;;;7.40;79.70;;;;;;5045098;28;20021;-69
2023/05/19 01:08:50;;;;;;;8.15;2.67;;;7.40;79.90;;;;;;5044941;28;20460;-69
2023/05/19 01:11:16;;;;;;;16.23;3.35;;;7.30;80.50;;;;;;5046473;28;20028;-69
2023/05/19 01:13:42;;;;;;;9.18;3.33;;;7.30;80.40;;;;;;5038171;28;20049;-69
2023/05/19 01:16:14;;;;;;;9.65;2.92;;;7.30;80.60;;;;;;5047407;28;20032;-69
2023/05/19 01:18:49;;;;;;;6.82;2.65;;;7.30;80.20;;;;;;5037151;28;20065;-69
2023/05/19 01:21:59;;;;;;;7.70;3.00;;;7.20;81.00;;;;;;5038886;28;20033;-69
2023/05/19 01:25:05;;;;;;;13.48;3.10;;;7.10;80.70;;;;;;5042820;28;20086;-69
2023/05/19 01:28:07;;;;;;;10.25;2.90;;;7.20;81.00;;;;;;5047678;28;20120;-69
2023/05/19 01:30:33;;;;;;;5.55;2.58;;;7.10;80.70;;;;;;5053087;28;20051;-69
2023/05/19 01:33:02;;;;;;;8.18;2.78;;;7.10;81.50;;;;;;5044364;28;20154;-69
2023/05/19 01:35:29;;;;;;;6.07;2.67;;;7.10;81.30;;;;;;5046354;28;20154;-69
2023/05/19 01:37:57;;;;;;;7.90;3.15;;;7.10;81.60;;;;;;5042071;28;20432;-68
2023/05/19 01:40:25;;;;;;;8.07;3.35;;;7.10;81.60;;;;;;5062101;28;20069;-69
2023/05/19 01:42:53;;;;;;;6.68;2.80;;;7.10;81.10;;;;;;5056226;28;20354;-69
2023/05/19 01:45:20;;;;;;;6.88;2.97;;;7.10;81.00;;;;;;5045114;28;20017;-69
2023/05/19 01:47:47;;;;;;;5.78;2.67;;;7.10;80.90;;;;;;5044580;28;20063;-69
2023/05/19 01:50:14;;;;;;;14.85;3.63;;;7.20;81.80;;;;;;5041540;28;20035;-69
2023/05/19 01:52:39;;;;;;;8.20;2.85;;;7.10;82.00;;;;;;5048212;28;20496;-69
2023/05/19 01:55:06;;;;;;;7.60;2.58;;;7.10;82.00;;;;;;5048222;28;20020;-69
2023/05/19 01:57:57;;;;;;;10.32;2.70;;;7.10;81.90;;;;;;5043113;28;20049;-69
2023/05/19 02:00:41;;;;;;;10.05;2.95;;;7.10;81.70;;;;;;5027277;28;20060;-69
2023/05/19 02:03:06;;;;;;;8.43;3.00;;;7.10;82.00;;;;;;5047821;28;20126;-69
2023/05/19 02:05:47;;;;;;;11.93;3.20;;;7.10;81.80;;;;;;5037820;28;20122;-69
2023/05/19 02:08:25;;;;;;;9.63;2.78;;;7.10;81.70;;;;;;5056013;28;20112;-69
2023/05/19 02:10:56;;;;;;;12.77;3.58;;;7.10;81.90;;;;;;5050710;28;20036;-69
2023/05/19 02:13:24;;;;;;;9.32;2.90;;;7.00;81.70;;;;;;5045865;28;20123;-70
2023/05/19 02:15:52;;;;;;;7.45;2.85;;;7.10;81.90;;;;;;5039412;28;20040;-69
2023/05/19 02:18:19;;;;;;;10.20;3.10;;;7.00;81.70;;;;;;5049971;28;20024;-70
2023/05/19 02:20:44;;;;;;;9.52;3.08;;;7.00;81.70;;;;;;5046086;28;20031;-69
2023/05/19 02:23:10;;;;;;;12.40;3.47;;;7.00;81.80;;;;;;5047283;28;20462;-69
2023/05/19 02:25:35;;;;;;;12.05;3.67;;;7.00;82.20;;;;;;5048540;28;20048;-69
2023/05/19 02:28:01;;;;;;;10.73;3.03;;;7.00;82.10;;;;;;5048143;28;20025;-69
2023/05/19 02:30:26;;;;;;;6.30;2.80;;;7.00;82.30;;;;;;5047709;28;20480;-70
2023/05/19 02:32:53;;;;;;;9.77;3.10;;;7.00;82.50;;;;;;5042335;28;20037;-69
2023/05/19 02:35:19;;;;;;;9.13;3.03;;;7.00;83.30;;;;;;5050609;28;20342;-69
2023/05/19 02:37:44;;;;;;;8.35;3.13;;;7.00;82.50;;;;;;5045916;28;20029;-69
2023/05/19 02:40:10;;;;;;;7.55;3.25;;;6.90;82.70;;;;;;5052367;28;20044;-69
2023/05/19 02:42:35;;;;;;;10.98;3.30;;;6.90;82.80;;;;;;5048856;28;20056;-69
2023/05/19 02:45:01;;;;;;;5.35;2.60;;;7.00;82.70;;;;;;5047687;28;20025;-69
2023/05/19 02:47:26;;;;;;;9.13;3.38;;;7.00;82.80;;;;;;5048266;28;20025;-69
2023/05/19 02:49:52;;;;;;;10.48;3.78;;;7.00;82.80;;;;;;5047172;28;20452;-69
2023/05/19 02:52:17;;;;;;;8.73;3.08;;;7.10;82.50;;;;;;5047355;28;20037;-69
2023/05/19 02:54:43;;;;;;;8.65;3.40;;;7.10;82.70;;;;;;5046980;28;20715;-69
2023/05/19 02:57:09;;;;;;;8.63;3.10;;;7.10;82.50;;;;;;5050085;28;20350;-69
2023/05/19 02:59:35;;;;;;;7.45;3.00;;;7.20;82.50;;;;;;5051730;28;20032;-69
2023/05/19 03:02:01;;;;;;;8.55;3.45;;;7.20;82.80;;;;;;5044657;28;21345;-69
2023/05/19 03:04:28;;;;;;;8.52;3.35;;;7.20;83.00;;;;;;5045798;28;20078;-69
2023/05/19 03:06:53;;;;;;;9.45;3.65;;;7.30;83.00;;;;;;5046072;28;20040;-69
2023/05/19 03:09:19;;;;;;;10.18;3.28;;;7.30;82.80;;;;;;5051211;28;20037;-69
2023/05/19 03:11:45;;;;;;;7.85;3.33;;;7.40;82.80;;;;;;5051083;28;20035;-69
2023/05/19 03:14:12;;;;;;;10.63;3.38;;;7.40;82.70;;;;;;5048459;28;20115;-69
2023/05/19 03:16:39;;;;;;;11.40;3.25;;;7.50;82.70;;;;;;5040843;28;20025;-69
2023/05/19 03:19:05;;;;;;;13.63;3.35;;;7.40;82.40;;;;;;5046536;28;20096;-69
2023/05/19 03:21:30;;;;;;;13.48;3.40;;;7.40;82.40;;;;;;5043247;28;20224;-70
2023/05/19 03:23:56;;;;;;;11.65;3.22;;;7.50;82.40;;;;;;5047013;28;20420;-70
2023/05/19 03:26:21;;;;;;;9.43;3.50;;;7.50;82.50;;;;;;5043313;28;20128;-69
2023/05/19 03:28:47;;;;;;;10.65;3.10;;;7.50;82.50;;;;;;5047973;28;20025;-69
2023/05/19 03:31:12;;;;;;;7.43;3.25;;;7.50;82.20;;;;;;5047400;28;20029;-69
2023/05/19 03:33:38;;;;;;;10.60;3.30;;;7.60;82.60;;;;;;5040125;28;20041;-69
2023/05/19 03:36:04;;;;;;;14.05;3.13;;;7.60;82.40;;;;;;5043986;28;20393;-69
2023/05/19 03:38:29;;;;;;;15.95;3.70;;;7.60;82.40;;;;;;5044605;28;20067;-70
2023/05/19 03:40:56;;;;;;;10.15;3.28;;;7.60;82.40;;;;;;5049925;28;20356;-69
2023/05/19 03:43:21;;;;;;;13.50;3.70;;;7.60;82.70;;;;;;5046550;28;20024;-69
2023/05/19 03:45:47;;;;;;;8.82;3.47;;;7.60;82.70;;;;;;5049656;28;20029;-69
2023/05/19 03:48:14;;;;;;;9.15;3.78;;;7.60;82.90;;;;;;5050530;28;20365;-69
2023/05/19 03:50:40;;;;;;;8.98;3.53;;;7.60;82.80;;;;;;5047131;28;20476;-69
2023/05/19 03:53:06;;;;;;;8.35;3.53;;;7.60;82.90;;;;;;5043903;28;20033;-69
2023/05/19 03:55:31;;;;;;;9.55;3.17;;;7.70;82.70;;;;;;5048823;28;20040;-72
2023/05/19 03:57:57;;;;;;;12.38;3.58;;;7.70;82.70;;;;;;5055491;28;20075;-71
2023/05/19 04:00:23;;;;;;;7.72;3.13;;;7.70;82.80;;;;;;5048297;28;20037;-71
2023/05/19 04:02:48;;;;;;;7.28;3.25;;;7.80;82.70;;;;;;5046680;28;20066;-71
2023/05/19 04:05:14;;;;;;;15.68;3.85;;;7.80;82.80;;;;;;5047161;28;20079;-71
2023/05/19 04:07:40;;;;;;;11.52;3.47;;;7.80;82.90;;;;;;5048878;28;20533;-71
2023/05/19 04:10:07;;;;;;;9.95;3.72;;;7.90;82.80;;;;;;5049595;28;20025;-72
2023/05/19 04:12:34;;;;;;;9.18;3.53;;;7.90;83.20;;;;;;5050893;28;20029;-71
2023/05/19 04:15:20;;;;;;;11.25;3.55;;;8.00;83.10;;;;;;5044742;28;20038;-72
2023/05/19 04:17:46;;;;;;;14.00;3.75;;;8.10;83.00;;;;;;5049611;28;20028;-72
2023/05/19 04:20:12;;;;;;;9.95;3.65;;;8.10;83.30;;;;;;5043083;28;20520;-71
2023/05/19 04:22:39;;;;;;;7.38;3.67;;;8.20;83.30;;;;;;5050741;28;20033;-72
2023/05/19 04:25:09;;;;;;;13.15;3.20;;;8.20;82.80;;;;;;5046301;28;20049;-71
2023/05/19 04:27:38;;;;;;;12.85;3.38;;;8.10;83.10;;;;;;5041965;28;20354;-70
2023/05/19 04:30:07;;;;;;;16.58;3.90;;;8.20;83.00;;;;;;5050001;28;20432;-73
2023/05/19 04:32:32;;;;;;;10.38;3.80;;;8.30;82.90;;;;;;5042351;28;20491;-73
2023/05/19 04:34:58;;;;;;;6.60;3.55;;;8.30;83.00;;;;;;5041115;28;20029;-73
2023/05/19 04:37:25;;;;;;;10.75;3.70;;;8.30;82.70;;;;;;5050720;28;20105;-70
2023/05/19 04:39:51;;;;;;;10.40;3.63;;;8.30;82.60;;;;;;5047037;28;20036;-70
2023/05/19 04:42:18;;;;;;;9.13;3.38;;;8.30;82.80;;;;;;5044997;28;20342;-70
2023/05/19 04:44:44;;;;;;;14.90;3.95;;;8.40;82.80;;;;;;5043770;28;20086;-70
2023/05/19 04:47:10;;;;;;;12.18;3.30;;;8.40;82.80;;;;;;5042819;28;20551;-70
2023/05/19 04:49:38;;;;;;;11.48;3.53;;;8.50;82.90;;;;;;5046897;28;20060;-70
2023/05/19 04:52:06;;;;;;;10.63;3.42;;;8.50;82.80;;;;;;5048104;28;20354;-70
2023/05/19 04:54:33;;;;;;;11.80;3.58;;;8.60;82.60;;;;;;5046571;28;20119;-70
2023/05/19 04:56:58;;;;;;;9.93;3.78;;;8.70;82.60;;;;;;5049273;28;20040;-71
2023/05/19 04:59:23;;;;;;;7.90;3.67;;;8.70;82.50;;;;;;5038396;28;20029;-71
2023/05/19 05:01:49;;;;;;;10.15;3.63;;;8.80;82.70;;;;;;5046427;28;21389;-71
2023/05/19 05:04:14;;;;;;;12.85;3.80;;;8.80;82.80;;;;;;5044850;28;20025;-70
2023/05/19 05:06:41;;;;;;;7.65;3.70;;;8.80;82.20;;;;;;5052593;28;20051;-69
2023/05/19 05:09:06;;;;;;;14.55;3.50;;;8.70;82.00;;;;;;5047696;28;20036;-71
2023/05/19 05:11:32;;;;;;;10.90;3.28;;;8.80;82.60;;;;;;5047594;28;20021;-70
2023/05/19 05:13:58;;;;;;;16.08;3.72;;;8.80;82.30;;;;;;5052766;28;20559;-70
2023/05/19 05:16:24;;;;;;;10.95;3.40;;;8.90;82.30;;;;;;5057809;28;20029;-70
2023/05/19 05:18:50;;;;;;;13.80;3.47;;;9.00;82.90;;;;;;5050025;28;20468;-71
2023/05/19 05:21:15;;;;;;;8.18;3.63;;;9.00;82.40;;;;;;5044611;28;20033;-70
2023/05/19 05:23:41;;;;;;;13.40;3.80;;;9.00;82.40;;;;;;5038811;28;20036;-70
2023/05/19 05:26:17;;;;;;;10.82;3.72;;;9.10;82.20;;;;;;5050385;28;20500;-70
2023/05/19 05:28:42;;;;;;;13.27;3.92;;;9.10;82.30;;;;;;5046657;28;20043;-71
2023/05/19 05:31:08;;;;;;;10.25;3.60;;;9.20;82.00;;;;;;5048322;28;20033;-71
2023/05/19 05:33:33;;;;;;;12.40;3.03;;;9.30;81.90;;;;;;5039962;28;20296;-70
2023/05/19 05:35:59;;;;;;;9.43;3.00;;;9.20;81.80;;;;;;5048120;28;20060;-70
2023/05/19 05:38:24;;;;;;;7.13;3.17;;;9.30;82.10;;;;;;5045686;28;22072;-70
2023/05/19 05:40:50;;;;;;;13.77;3.58;;;9.50;82.00;;;;;;5046530;28;20029;-71
2023/05/19 05:43:15;;;;;;;9.80;3.33;;;9.60;82.10;;;;;;5054523;28;20131;-72
2023/05/19 05:45:41;;;;;;;10.30;3.33;;;9.60;81.40;;;;;;5041909;28;20386;-71
2023/05/19 05:48:07;;;;;;;9.40;3.08;;;9.70;81.50;;;;;;5051094;28;20036;-70
2023/05/19 05:50:33;;;;;;;9.07;3.13;;;9.80;81.20;;;;;;5060140;28;20024;-71
2023/05/19 05:53:00;;;;;;;14.65;3.58;;;9.90;81.40;;;;;;5056145;28;20052;-70
2023/05/19 05:55:26;;;;;;;11.43;3.03;;;9.80;80.90;;;;;;5062816;28;20040;-71
2023/05/19 05:57:52;;;;;;;9.95;3.08;;;9.80;80.90;;;;;;5053248;28;20029;-71
2023/05/19 06:00:18;;;;;;;14.57;3.42;;;9.90;81.10;;;;;;5051735;28;20342;-71
2023/05/19 06:02:46;;;;;;;10.05;3.45;;;9.80;80.90;;;;;;5050875;28;20093;-70
2023/05/19 06:05:11;;;;;;;8.60;3.53;;;10.00;81.40;;;;;;5051185;28;20017;-70
2023/05/19 06:07:37;;;;;;;10.95;2.97;;;10.00;81.10;;;;;;5052935;28;20483;-70
2023/05/19 06:10:04;;;;;;;14.15;3.65;;;10.00;80.50;;;;;;5054724;28;20040;-70
2023/05/19 06:12:30;;;;;;;10.80;3.17;;;10.10;81.50;;;;;;5052297;28;20146;-70
2023/05/19 06:14:55;;;;;;;10.30;3.20;;;10.10;80.90;;;;;;5052137;28;20481;-71
2023/05/19 06:17:20;;;;;;;11.38;3.40;;;10.20;81.00;;;;;;5053320;28;20032;-71
2023/05/19 06:19:46;;;;;;;10.32;3.15;;;10.40;80.60;;;;;;5057418;28;20033;-71
2023/05/19 06:22:11;;;;;;;10.35;3.17;;;10.50;80.70;;;;;;5047913;28;20029;-71
2023/05/19 06:24:37;;;;;;;9.40;2.63;;;10.80;80.40;;;;;;5054081;28;20557;-70
2023/05/19 06:27:03;;;;;;;10.05;3.13;;;11.00;79.60;;;;;;5053158;28;20025;-69
2023/05/19 06:29:28;;;;;;;5.03;2.60;;;11.40;79.40;;;;;;5051508;28;20032;-70
2023/05/19 06:31:53;;;;;;;9.38;2.95;;;11.70;80.10;;;;;;5053488;28;20104;-70
2023/05/19 06:34:19;;;;;;;8.73;2.67;;;11.80;77.60;;;;;;5048404;28;20377;-70
2023/05/19 06:36:45;;;;;;;7.65;2.50;;;11.70;76.30;;;;;;5051390;28;20118;-70
2023/05/19 06:39:10;;;;;;;8.15;2.75;;;12.00;75.50;;;;;;5061143;28;20028;-70
2023/05/19 06:41:36;;;;;;;7.18;2.45;;;12.30;75.50;;;;;;5052994;28;20418;-70
2023/05/19 06:44:03;;;;;;;7.22;2.55;;;12.30;74.40;;;;;;5045142;28;20032;-71
2023/05/19 06:46:28;;;;;;;9.70;2.80;;;12.60;73.80;;;;;;5044750;28;20036;-70
2023/05/19 06:48:53;;;;;;;6.65;2.13;;;12.80;71.10;;;;;;5046770;28;20488;-71
2023/05/19 06:51:21;;;;;;;10.07;2.78;;;12.90;72.20;;;;;;5044995;28;20088;-70
2023/05/19 06:53:47;;;;;;;6.03;2.10;;;13.10;72.10;;;;;;5046966;28;20036;-70
2023/05/19 06:56:14;;;;;;;9.73;2.45;;;13.00;72.00;;;;;;5048397;28;20048;-71
2023/05/19 06:58:40;;;;;;;9.88;2.58;;;12.90;72.00;;;;;;5051582;28;20505;-70
2023/05/19 07:01:05;;;;;;;6.18;2.28;;;12.70;72.70;;;;;;5050928;28;20119;-70
2023/05/19 07:03:31;;;;;;;13.77;3.10;;;12.40;72.60;;;;;;5051182;28;20025;-70
2023/05/19 07:05:56;;;;;;;7.28;2.30;;;12.30;73.40;;;;;;5047080;28;20032;-70
2023/05/19 07:08:22;;;;;;;9.82;2.55;;;12.50;74.60;;;;;;5050454;28;20423;-70
2023/05/19 07:10:47;;;;;;;7.60;2.55;;;12.80;74.50;;;;;;5050355;28;20025;-70
2023/05/19 07:13:13;;;;;;;11.02;2.42;;;13.00;73.00;;;;;;5052023;28;20073;-70
2023/05/19 07:15:38;;;;;;;10.50;2.88;;;13.20;72.10;;;;;;5049925;28;20032;-70
2023/05/19 07:18:04;;;;;;;7.88;2.40;;;13.60;70.80;;;;;;5051792;28;20044;-70
2023/05/19 07:20:30;;;;;;;7.00;2.30;;;13.70;70.20;;;;;;5048993;28;20354;-70
2023/05/19 07:22:55;;;;;;;7.82;2.35;;;13.70;69.50;;;;;;5046091;28;22165;-70
2023/05/19 07:25:21;;;;;;;8.20;2.20;;;13.70;69.50;;;;;;5041094;28;20044;-70
2023/05/19 07:27:46;;;;;;;9.18;2.28;;;14.10;67.40;;;;;;5048588;28;20032;-70
2023/05/19 07:30:12;;;;;;;8.30;1.90;;;14.40;68.10;;;;;;5047682;28;20029;-70
2023/05/19 07:32:37;;;;;;;6.38;1.88;;;14.20;66.10;;;;;;5046913;28;20024;-69
2023/05/19 07:35:04;;;;;;;7.25;1.90;;;14.10;68.50;;;;;;5043695;28;20470;-71
2023/05/19 07:37:30;;;;;;;10.45;1.73;;;14.00;66.10;;;;;;5042623;28;20496;-69
2023/05/19 07:39:55;;;;;;;6.63;1.75;;;13.80;65.60;;;;;;5050347;28;20025;-70
2023/05/19 07:42:21;;;;;;;6.55;1.58;;;13.80;66.90;;;;;;5040654;28;20040;-70
2023/05/19 07:44:46;;;;;;;6.72;1.70;;;13.80;67.60;;;;;;5048263;28;20108;-71
2023/05/19 07:47:12;;;;;;;7.20;1.65;;;14.00;67.50;;;;;;5039019;28;20339;-70
2023/05/19 07:49:37;;;;;;;6.47;1.20;;;13.90;66.10;;;;;;5042536;28;20039;-70
2023/05/19 07:52:03;;;;;;;6.13;1.73;;;14.10;67.10;;;;;;5037296;28;20036;-70
2023/05/19 07:54:28;;;;;;;5.00;1.38;;;14.00;62.90;;;;;;5043530;28;20032;-70
2023/05/19 07:56:54;;;;;;;6.50;1.55;;;14.20;64.10;;;;;;5040613;28;20434;-70
2023/05/19 07:59:19;;;;;;;6.10;1.60;;;14.30;63.30;;;;;;5041244;28;20075;-71
2023/05/19 08:01:45;;;;;;;5.50;1.50;;;14.60;63.50;;;;;;5048982;28;20083;-70
2023/05/19 08:04:11;;;;;;;3.92;1.48;;;14.70;63.30;;;;;;5048554;28;20112;-70
2023/05/19 08:06:37;;;;;;;9.25;1.48;;;14.60;63.30;;;;;;5046618;28;20369;-70
2023/05/19 08:09:02;;;;;;;6.03;1.50;;;14.70;64.40;;;;;;5044134;28;20036;-70
2023/05/19 08:11:28;;;;;;;10.30;1.85;;;14.80;64.50;;;;;;5055592;28;20024;-72
2023/05/19 08:13:54;;;;;;;4.93;1.30;;;14.80;64.40;;;;;;5049268;28;20381;-71
2023/05/19 08:16:19;;;;;;;5.65;1.52;;;14.70;64.00;;;;;;5043666;28;20051;-70
2023/05/19 08:18:45;;;;;;;6.88;1.58;;;14.70;64.60;;;;;;5049189;28;20048;-70
2023/05/19 08:21:11;;;;;;;4.95;1.42;;;14.60;63.70;;;;;;5048413;28;20033;-71
2023/05/19 08:23:37;;;;;;;7.32;1.70;;;14.60;63.00;;;;;;5060968;28;20028;-70
2023/05/19 08:26:02;;;;;;;5.88;2.08;;;14.80;65.90;;;;;;5049335;28;20422;-70
2023/05/19 08:28:28;;;;;;;6.93;1.63;;;15.00;60.50;;;;;;5048353;28;20045;-71
2023/05/19 08:30:53;;;;;;;4.28;1.40;;;15.20;62.00;;;;;;5046746;28;20029;-71
2023/05/19 08:33:20;;;;;;;6.88;1.73;;;15.30;61.80;;;;;;5044012;28;20036;-70
2023/05/19 08:35:46;;;;;;;5.15;1.70;;;15.60;60.60;;;;;;5045017;28;20185;-71
2023/05/19 08:38:12;;;;;;;9.00;1.60;;;15.80;61.90;;;;;;5045358;28;20021;-71
2023/05/19 08:40:40;;;;;;;8.35;1.80;;;16.00;60.30;;;;;;5043682;28;20408;-71
2023/05/19 08:43:06;;;;;;;5.07;1.42;;;16.20;59.90;;;;;;5047765;28;20067;-71
2023/05/19 08:45:33;;;;;;;4.85;1.30;;;16.50;56.90;;;;;;5046579;28;20056;-71
2023/05/19 08:47:58;;;;;;;8.85;1.45;;;16.40;55.30;;;;;;5047099;28;21498;-71
2023/05/19 08:50:29;;;;;;;4.10;1.40;;;16.60;56.10;;;;;;5046234;28;20362;-70
2023/05/19 08:53:08;;;;;;;5.57;1.35;;;17.00;54.70;;;;;;5043266;28;20055;-71
2023/05/19 08:55:52;;;;;;;7.50;1.40;;;17.20;53.80;;;;;;5044869;28;20025;-73
2023/05/19 08:58:19;;;;;;;5.53;1.30;;;17.70;55.10;;;;;;5039214;28;20068;-73
2023/05/19 09:00:45;;;;;;;6.15;1.70;;;17.80;54.50;;;;;;5053319;28;20125;-73
2023/05/19 09:03:14;;;;;;;6.60;1.80;;;17.80;53.30;;;;;;5050036;28;20361;-73
2023/05/19 09:05:40;;;;;;;5.30;1.38;;;18.20;53.70;;;;;;5035501;28;20056;-73
2023/05/19 09:08:06;;;;;;;5.28;1.30;;;18.20;55.20;;;;;;5045887;28;20067;-73
2023/05/19 09:10:31;;;;;;;11.32;1.92;;;18.20;51.60;;;;;;5048954;28;20029;-73
2023/05/19 09:12:57;;;;;;;12.55;1.85;;;18.20;54.60;;;;;;5049866;28;20029;-73
2023/05/19 09:15:26;;;;;;;4.57;1.50;;;18.00;53.30;;;;;;5041568;28;20069;-73
2023/05/19 09:18:08;;;;;;;5.47;1.52;;;18.00;53.60;;;;;;5046392;28;20029;-73
2023/05/19 09:20:44;;;;;;;9.85;1.63;;;17.70;49.50;;;;;;5047304;28;20037;-73
2023/05/19 09:23:14;;;;;;;8.27;1.77;;;17.90;54.10;;;;;;5047680;28;20111;-72
2023/05/19 09:25:50;;;;;;;4.75;1.30;;;18.30;52.20;;;;;;5053420;28;20045;-74
2023/05/19 09:28:26;;;;;;;5.47;1.38;;;19.50;51.80;;;;;;5052517;28;20048;-73
2023/05/19 09:31:05;;;;;;;5.00;1.23;;;19.40;49.60;;;;;;5048356;28;20036;-73
2023/05/19 09:33:36;;;;;;;4.97;1.67;;;19.70;49.60;;;;;;5046950;28;20048;-74
2023/05/19 09:36:04;;;;;;;;;;;20.00;47.70;;;;;;5050536;28;20036;-73
2023/05/19 09:38:29;;;;;;;5.30;1.38;;;20.20;46.00;;;;;;5044982;28;19917;-73
2023/05/19 09:40:56;;;;;;;5.38;1.52;;;20.50;48.40;;;;;;5051002;28;20025;-73
2023/05/19 09:43:22;;;;;;;4.45;1.45;;;20.40;47.90;;;;;;5051836;28;20468;-73
2023/05/19 09:45:53;;;;;;;8.68;1.83;;;20.20;47.00;;;;;;5049193;28;20021;-73
2023/05/19 09:48:19;;;;;;;7.15;1.60;;;20.00;49.60;;;;;;5053116;28;20094;-73
2023/05/19 09:50:45;;;;;;;7.93;1.33;;;20.00;47.60;;;;;;5048317;28;20063;-72
2023/05/19 09:53:15;;;;;;;6.35;1.60;;;19.70;47.50;;;;;;5049020;28;20032;-72
2023/05/19 09:55:41;;;;;;;7.63;1.83;;;20.10;45.70;;;;;;5047241;28;20040;-72
2023/05/19 09:58:07;;;;;;;5.25;1.42;;;19.90;46.20;;;;;;5046504;28;20390;-72
2023/05/19 10:00:33;;;;;;;7.60;1.42;;;20.30;49.30;;;;;;5045792;28;20099;-71
2023/05/19 10:03:02;;;;;;;5.72;1.45;;;20.70;50.20;;;;;;5053445;28;20599;-71
2023/05/19 10:05:29;;;;;;;5.25;1.35;;;20.70;46.60;;;;;;5041091;28;20048;-71
2023/05/19 10:07:54;;;;;;;5.30;1.30;;;20.80;44.90;;;;;;5039397;28;20021;-72
2023/05/19 10:10:21;;;;;;;5.47;1.10;;;21.00;45.10;;;;;;5045304;28;20158;-74
2023/05/19 10:12:49;;;;;;;6.03;1.38;;;21.10;43.70;;;;;;5054288;28;20205;-76
2023/05/19 10:15:17;;;;;;;6.32;1.75;;;21.70;42.40;;;;;;5046991;28;20032;-73
2023/05/19 10:17:43;;;;;;;5.82;1.27;;;21.10;40.90;;;;;;5047927;28;20043;-73
2023/05/19 10:20:11;;;;;;;6.82;1.67;;;21.00;39.50;;;;;;5049785;28;20070;-73
2023/05/19 10:22:38;;;;;;;7.25;1.33;;;21.50;45.70;;;;;;5044720;28;20369;-73
2023/05/19 10:25:05;;;;;;;7.32;1.73;;;22.30;45.00;;;;;;5053873;28;20354;-72
2023/05/19 10:27:33;;;;;;;5.57;1.58;;;21.80;41.80;;;;;;5051621;28;20027;-73
2023/05/19 10:30:05;;;;;;;5.65;2.08;;;21.90;41.40;;;;;;5036882;28;20854;-73
2023/05/19 10:32:32;;;;;;;6.13;1.33;;;22.30;43.10;;;;;;5035845;28;20021;-71
2023/05/19 10:35:06;;;;;;;6.50;1.50;;;23.00;41.40;;;;;;5040345;28;20103;-73
2023/05/19 10:37:42;;;;;;;3.72;1.40;;;23.50;38.50;;;;;;5044197;28;20025;-73
2023/05/19 10:40:31;;;;;;;4.38;1.13;;;21.60;37.20;;;;;;5039997;28;20021;-73
2023/05/19 10:43:06;;;;;;;4.35;1.10;;;21.30;41.40;;;;;;5046300;28;20087;-73
2023/05/19 10:45:40;;;;;;;4.72;1.23;;;21.60;41.00;;;;;;5043282;28;20033;-73
2023/05/19 10:48:13;;;;;;;4.10;1.35;;;22.50;42.10;;;;;;5045008;28;20450;-73
2023/05/19 10:50:38;;;;;;;4.18;1.10;;;22.10;40.10;;;;;;5048794;28;20103;-73
2023/05/19 10:53:12;;;;;;;5.03;1.35;;;21.90;39.80;;;;;;5036536;28;20518;-73
2023/05/19 10:55:48;;;;;;;4.05;1.33;;;22.70;40.50;;;;;;5036689;28;20036;-73
2023/05/19 10:58:13;;;;;;;6.60;1.65;;;22.70;40.40;;;;;;5040932;28;20030;-73
2023/05/19 11:00:40;;;;;;;3.72;1.20;;;23.00;38.30;;;;;;5039226;28;20094;-73
2023/05/19 11:03:17;;;;;;;5.55;1.20;;;22.40;39.60;;;;;;5044570;28;20024;-76
2023/05/19 11:05:45;;;;;;;5.38;1.17;;;21.90;41.50;;;;;;5042462;28;20029;-73
2023/05/19 11:08:11;;;;;;;6.68;1.17;;;22.20;39.60;;;;;;5040632;28;20191;-73
2023/05/19 11:10:36;;;;;;;4.38;1.40;;;22.00;38.50;;;;;;5048908;28;20060;-73
2023/05/19 11:13:04;;;;;;;8.18;1.92;;;21.40;39.50;;;;;;5041509;28;20478;-68
2023/05/19 11:15:34;;;;;;;6.15;1.40;;;21.20;38.80;;;;;;5043274;28;20080;-74
2023/05/19 11:18:00;;;;;;;4.90;1.33;;;21.30;41.20;;;;;;5044379;28;20394;-73
2023/05/19 11:20:27;;;;;;;6.82;1.10;;;21.00;43.10;;;;;;5037424;28;20533;-74
2023/05/19 11:23:02;;;;;;;5.15;1.20;;;21.80;38.70;;;;;;5044115;28;20229;-73
2023/05/19 11:25:40;;;;;;;4.40;1.17;;;22.40;36.10;;;;;;5049461;28;20381;-74
2023/05/19 11:28:06;;;;;;;4.88;1.23;;;22.30;40.20;;;;;;5042251;28;20028;-74
2023/05/19 11:30:31;;;;;;;5.60;1.55;;;22.00;37.20;;;;;;5040322;28;20363;-74
2023/05/19 11:32:57;;;;;;;3.80;1.13;;;22.40;38.40;;;;;;5045148;28;20025;-73
2023/05/19 11:35:23;;;;;;;4.10;1.10;;;22.00;35.70;;;;;;5037494;28;20434;-74
2023/05/19 11:37:52;;;;;;;4.43;1.23;;;22.20;36.10;;;;;;5035065;28;20571;-74
2023/05/19 11:40:20;;;;;;;5.47;1.50;;;22.40;35.60;;;;;;5047041;28;20040;-74
2023/05/19 11:42:45;;;;;;;4.63;1.23;;;21.20;39.10;;;;;;5038459;28;20033;-73
2023/05/19 11:45:11;;;;;;;4.68;1.35;;;20.60;39.60;;;;;;5046947;28;20025;-73
2023/05/19 11:47:37;;;;;;;4.10;1.30;;;20.50;42.30;;;;;;5047940;28;20037;-72
2023/05/19 11:50:03;;;;;;;7.50;2.03;;;20.10;42.40;;;;;;5048852;28;20021;-73
2023/05/19 11:52:29;;;;;;;5.18;1.40;;;20.20;40.60;;;;;;5044537;28;20021;-73
2023/05/19 11:54:55;;;;;;;5.30;1.25;;;21.20;39.50;;;;;;5053478;28;20025;-72
2023/05/19 11:57:21;;;;;;;4.18;1.27;;;21.90;39.90;;;;;;5042945;28;20017;-73
2023/05/19 11:59:48;;;;;;;3.85;1.23;;;22.60;36.00;;;;;;5044842;28;20416;-73
2023/05/19 12:02:15;;;;;;;5.93;1.50;;;23.10;37.00;;;;;;5047799;28;20024;-73
2023/05/19 12:04:41;;;;;;;3.75;1.17;;;22.90;38.60;;;;;;5036068;28;20032;-73
2023/05/19 12:07:07;;;;;;;3.17;1.40;;;22.30;40.20;;;;;;5045378;28;20111;-73
2023/05/19 12:09:32;;;;;;;5.15;1.27;;;22.00;38.50;;;;;;5050826;28;20029;-73
2023/05/19 12:11:58;;;;;;;4.57;0.93;;;21.50;38.20;;;;;;5047161;28;20039;-73
2023/05/19 12:14:26;;;;;;;3.42;1.15;;;20.90;39.90;;;;;;5052745;28;20068;-73
2023/05/19 12:16:51;;;;;;;5.53;1.20;;;21.60;41.00;;;;;;5055824;28;20462;-73
2023/05/19 12:19:17;;;;;;;6.13;1.48;;;22.50;36.40;;;;;;5043806;28;20029;-73
2023/05/19 12:21:42;;;;;;;8.05;1.77;;;23.10;39.50;;;;;;5049954;28;20481;-72
2023/05/19 12:24:11;;;;;;;5.82;1.48;;;23.00;37.00;;;;;;5046956;28;20029;-71
2023/05/19 12:26:37;;;;;;;5.68;1.35;;;22.90;35.10;;;;;;5042870;28;20041;-72
2023/05/19 12:29:06;;;;;;;5.22;1.10;;;22.20;38.90;;;;;;5040905;28;20098;-70
2023/05/19 12:31:33;;;;;;;3.38;1.40;;;23.30;37.20;;;;;;5043826;28;20025;-74
2023/05/19 12:34:00;;;;;;;4.25;1.15;;;23.40;36.40;;;;;;5033748;28;20017;-72
2023/05/19 12:36:27;;;;;;;2.97;1.13;;;24.40;35.20;;;;;;5041225;28;20026;-72
2023/05/19 12:38:53;;;;;;;5.60;1.60;;;24.10;34.00;;;;;;5049593;28;20078;-72
2023/05/19 12:41:19;;;;;;;4.55;1.30;;;25.00;34.30;;;;;;5053293;28;20051;-72
2023/05/19 12:43:44;;;;;;;4.28;1.33;;;25.30;32.20;;;;;;5043071;28;20032;-72
2023/05/19 12:46:11;;;;;;;3.78;1.13;;;24.90;32.00;;;;;;5059011;28;20120;-72
2023/05/19 12:48:44;;;;;;;7.00;2.20;;;23.80;34.70;;;;;;5049694;28;20084;-72